Time;durP1;ratioP1;P1;durP2;ratioP2;P2;SDS_P1;SDS_P2;PMS_P1;PMS_P2;Temp;Humidity;BMP_temperature;BMP_pressure;BME280_temperature;BME280_humidity;BME280_pressure;Samples;Min_cycle;Max_cycle;Signal;HPM_P1;HPM_P2
2023/10/22 00:00:28;;;;;;;2.17;0.35;;;17.20;59.40;;;;;;4973668;28;20133;-52
2023/10/22 00:02:55;;;;;;;1.05;0.55;;;17.20;59.40;;;;;;4974216;28;20051;-56
2023/10/22 00:05:21;;;;;;;1.38;0.68;;;17.20;59.50;;;;;;4973443;28;20458;-55
2023/10/22 00:07:48;;;;;;;1.40;0.40;;;17.20;59.40;;;;;;4973256;28;20266;-58
2023/10/22 00:10:15;;;;;;;1.00;0.45;;;17.20;59.50;;;;;;4973167;28;20046;-56
2023/10/22 00:12:41;;;;;;;0.57;0.47;;;17.20;59.60;;;;;;4972635;28;20039;-55
2023/10/22 00:15:08;;;;;;;0.75;0.65;;;17.20;59.70;;;;;;4972507;28;20070;-56
2023/10/22 00:17:35;;;;;;;2.75;0.38;;;17.20;59.80;;;;;;4972266;28;20047;-59
2023/10/22 00:20:02;;;;;;;0.40;0.20;;;17.20;59.80;;;;;;4967632;28;20035;-51
2023/10/22 00:22:29;;;;;;;0.73;0.40;;;17.20;59.80;;;;;;4973293;28;20585;-53
2023/10/22 00:24:56;;;;;;;2.10;0.60;;;17.20;59.90;;;;;;4969068;28;20125;-55
2023/10/22 00:27:23;;;;;;;2.25;0.40;;;17.20;59.90;;;;;;4973550;28;20046;-56
2023/10/22 00:29:51;;;;;;;1.58;0.40;;;17.20;59.90;;;;;;4970791;28;20070;-55
2023/10/22 00:32:18;;;;;;;0.57;0.20;;;17.20;60.00;;;;;;4968763;28;20063;-56
2023/10/22 00:34:44;;;;;;;0.47;0.20;;;17.20;60.10;;;;;;4967817;28;20051;-57
2023/10/22 00:37:11;;;;;;;1.90;0.50;;;17.20;60.20;;;;;;4972414;28;20050;-55
2023/10/22 00:39:38;;;;;;;1.52;0.30;;;17.20;60.30;;;;;;4971472;28;20720;-52
2023/10/22 00:42:05;;;;;;;0.43;0.40;;;17.20;60.40;;;;;;4948353;29;20043;-58
2023/10/22 00:44:32;;;;;;;0.50;0.20;;;17.20;60.60;;;;;;4969894;28;20150;-54
2023/10/22 00:47:01;;;;;;;1.95;0.30;;;17.20;60.70;;;;;;4972297;28;20047;-54
2023/10/22 00:49:28;;;;;;;1.30;0.40;;;17.20;61.00;;;;;;4970989;28;20424;-54
2023/10/22 00:51:56;;;;;;;0.82;0.55;;;17.10;61.30;;;;;;4972849;28;20071;-57
2023/10/22 00:54:25;;;;;;;0.43;0.35;;;17.10;61.30;;;;;;4970683;28;20045;-59
2023/10/22 00:56:53;;;;;;;1.55;0.90;;;17.10;61.60;;;;;;4971549;28;20043;-52
2023/10/22 00:59:20;;;;;;;2.22;0.38;;;17.10;61.90;;;;;;4954756;28;20078;-58
2023/10/22 01:01:47;;;;;;;0.80;0.20;;;17.00;62.00;;;;;;4972976;28;20145;-55
2023/10/22 01:04:14;;;;;;;1.35;0.35;;;17.10;62.50;;;;;;4971805;28;20043;-56
2023/10/22 01:06:41;;;;;;;0.70;0.20;;;17.00;62.50;;;;;;4951293;28;20097;-53
2023/10/22 01:09:09;;;;;;;0.50;0.20;;;17.00;62.70;;;;;;4967313;28;20047;-55
2023/10/22 01:11:38;;;;;;;1.05;0.40;;;17.00;62.70;;;;;;4970926;28;20051;-55
2023/10/22 01:14:05;;;;;;;1.70;0.40;;;17.00;62.70;;;;;;4970773;28;20117;-58
2023/10/22 01:16:32;;;;;;;0.40;0.20;;;16.90;62.90;;;;;;4972283;28;20039;-55
2023/10/22 01:19:00;;;;;;;0.38;0.20;;;16.90;62.80;;;;;;4954713;28;20050;-54
2023/10/22 01:21:29;;;;;;;0.75;0.30;;;16.90;62.80;;;;;;4953209;28;20095;-55
2023/10/22 01:23:56;;;;;;;0.82;0.40;;;16.90;63.00;;;;;;4970027;28;20053;-53
2023/10/22 01:26:23;;;;;;;0.77;0.40;;;16.90;63.20;;;;;;4970856;28;20100;-54
2023/10/22 01:28:50;;;;;;;0.63;0.10;;;16.90;63.10;;;;;;4971058;28;20105;-54
2023/10/22 01:31:17;;;;;;;1.15;0.50;;;16.90;63.00;;;;;;4951627;28;20577;-52
2023/10/22 01:33:46;;;;;;;0.38;0.20;;;16.90;63.20;;;;;;4967072;28;20524;-57
2023/10/22 01:36:15;;;;;;;0.95;0.38;;;16.90;63.10;;;;;;4971607;28;20524;-56
2023/10/22 01:38:42;;;;;;;0.77;0.30;;;16.90;63.10;;;;;;4971485;28;20038;-55
2023/10/22 01:41:08;;;;;;;1.13;0.40;;;16.90;63.10;;;;;;4969891;28;20145;-57
2023/10/22 01:43:35;;;;;;;1.33;0.20;;;16.90;63.10;;;;;;4970387;28;20034;-55
2023/10/22 01:46:03;;;;;;;3.17;0.20;;;16.90;63.10;;;;;;4954096;28;20054;-51
2023/10/22 01:48:30;;;;;;;1.08;0.22;;;16.90;63.00;;;;;;4971779;28;20595;-54
2023/10/22 01:50:58;;;;;;;2.10;0.30;;;16.90;63.00;;;;;;4954254;28;20572;-53
2023/10/22 01:53:26;;;;;;;0.90;0.20;;;16.80;63.00;;;;;;4952512;28;20113;-57
2023/10/22 01:55:52;;;;;;;1.10;0.20;;;16.90;63.10;;;;;;4952561;28;20422;-55
2023/10/22 01:58:22;;;;;;;1.92;0.20;;;16.80;63.00;;;;;;4952720;28;20042;-53
2023/10/22 02:00:49;;;;;;;1.23;0.28;;;16.80;63.00;;;;;;4953614;28;20051;-57
2023/10/22 02:03:15;;;;;;;2.40;0.30;;;16.80;63.00;;;;;;4953513;28;20043;-56
2023/10/22 02:05:42;;;;;;;0.43;0.20;;;16.80;63.20;;;;;;4951881;28;20138;-55
2023/10/22 02:08:09;;;;;;;0.38;0.20;;;16.70;63.10;;;;;;4953370;28;20074;-55
2023/10/22 02:10:36;;;;;;;1.85;0.30;;;16.70;63.20;;;;;;4971293;28;20074;-55
2023/10/22 02:13:02;;;;;;;1.45;0.10;;;16.70;63.30;;;;;;4968287;28;20042;-55
2023/10/22 02:15:29;;;;;;;0.52;0.20;;;16.70;63.40;;;;;;4969133;28;20528;-53
2023/10/22 02:17:56;;;;;;;0.10;0.10;;;16.70;63.50;;;;;;4969667;28;20047;-53
2023/10/22 02:20:23;;;;;;;1.17;0.20;;;16.70;63.50;;;;;;4969410;28;20097;-51
2023/10/22 02:22:52;;;;;;;1.70;0.40;;;16.70;63.50;;;;;;4968884;28;20086;-56
2023/10/22 02:25:19;;;;;;;0.50;0.20;;;16.70;63.60;;;;;;4969276;28;20545;-54
2023/10/22 02:27:45;;;;;;;1.20;0.20;;;16.70;63.50;;;;;;4970204;28;20105;-54
2023/10/22 02:30:12;;;;;;;0.88;0.32;;;16.70;63.60;;;;;;4953080;28;20055;-58
2023/10/22 02:32:39;;;;;;;0.73;0.10;;;16.70;63.60;;;;;;4970343;28;20069;-56
2023/10/22 02:35:07;;;;;;;1.80;0.30;;;16.70;63.70;;;;;;4967754;28;20429;-57
2023/10/22 02:37:34;;;;;;;0.30;0.30;;;16.70;63.80;;;;;;4966064;28;20124;-54
2023/10/22 02:40:00;;;;;;;0.57;0.30;;;16.70;63.80;;;;;;4969028;28;20078;-56
2023/10/22 02:42:27;;;;;;;0.68;0.13;;;16.70;63.90;;;;;;5010007;23;20042;-57
2023/10/22 02:44:54;;;;;;;0.45;0.30;;;16.70;63.90;;;;;;5004476;28;20049;-58
2023/10/22 02:47:22;;;;;;;0.57;0.20;;;16.70;63.90;;;;;;4999877;28;20058;-57
2023/10/22 02:49:48;;;;;;;0.30;0.15;;;16.70;63.90;;;;;;5007117;28;20078;-59
2023/10/22 02:52:15;;;;;;;1.00;0.30;;;16.70;64.00;;;;;;5010844;28;20042;-59
2023/10/22 02:54:42;;;;;;;0.45;0.30;;;16.70;64.00;;;;;;5009451;28;20077;-59
2023/10/22 02:57:12;;;;;;;0.20;0.10;;;16.70;64.20;;;;;;5007262;28;20034;-59
2023/10/22 02:59:39;;;;;;;0.32;0.20;;;16.70;64.90;;;;;;4995591;28;20133;-58
2023/10/22 03:02:06;;;;;;;1.05;0.20;;;16.70;64.30;;;;;;4997667;28;20049;-58
2023/10/22 03:04:33;;;;;;;1.75;0.35;;;16.60;64.40;;;;;;4997328;28;20163;-58
2023/10/22 03:06:59;;;;;;;0.73;0.30;;;16.70;64.70;;;;;;5020404;28;20069;-58
2023/10/22 03:09:26;;;;;;;0.45;0.28;;;16.60;64.80;;;;;;5010889;28;20046;-58
2023/10/22 03:11:53;;;;;;;0.65;0.10;;;16.60;64.90;;;;;;5011622;28;20041;-59
2023/10/22 03:14:22;;;;;;;1.08;0.28;;;16.60;65.00;;;;;;5004945;28;20052;-59
2023/10/22 03:16:49;;;;;;;0.25;0.10;;;16.60;65.10;;;;;;5002925;28;20100;-58
2023/10/22 03:19:17;;;;;;;2.70;0.95;;;16.60;65.10;;;;;;4999861;28;20045;-59
2023/10/22 03:21:44;;;;;;;0.50;0.15;;;16.60;65.20;;;;;;5006683;28;20126;-58
2023/10/22 03:24:12;;;;;;;0.20;0.10;;;16.60;65.40;;;;;;5018679;28;20539;-58
2023/10/22 03:26:41;;;;;;;0.35;0.13;;;16.60;65.50;;;;;;5013178;28;20044;-55
2023/10/22 03:29:08;;;;;;;0.75;0.10;;;16.50;65.50;;;;;;5017526;28;20061;-58
2023/10/22 03:31:35;;;;;;;0.20;0.10;;;16.50;65.60;;;;;;5016621;28;20467;-59
2023/10/22 03:34:02;;;;;;;0.75;0.63;;;16.50;65.70;;;;;;5021287;28;20678;-58
2023/10/22 03:36:31;;;;;;;0.55;0.20;;;16.50;65.80;;;;;;5006005;28;20042;-58
2023/10/22 03:38:57;;;;;;;0.25;0.22;;;16.50;65.80;;;;;;5023781;28;20070;-57
2023/10/22 03:41:25;;;;;;;0.38;0.10;;;16.50;66.00;;;;;;5018584;28;20415;-58
2023/10/22 03:43:54;;;;;;;0.50;0.20;;;16.50;65.90;;;;;;5014938;28;20046;-58
2023/10/22 03:46:20;;;;;;;1.15;0.20;;;16.50;66.10;;;;;;5006468;28;20049;-58
2023/10/22 03:48:47;;;;;;;0.20;0.20;;;16.50;66.10;;;;;;5021529;28;20067;-58
2023/10/22 03:51:21;;;;;;;0.95;0.20;;;16.50;66.30;;;;;;5016202;28;20046;-58
2023/10/22 03:53:48;;;;;;;0.47;0.20;;;16.50;66.50;;;;;;5013682;28;20407;-57
2023/10/22 03:56:15;;;;;;;1.83;0.30;;;16.40;66.50;;;;;;5003414;28;20049;-58
2023/10/22 03:58:42;;;;;;;0.30;0.10;;;16.40;66.70;;;;;;5020229;28;20042;-57
2023/10/22 04:01:09;;;;;;;0.40;0.20;;;16.40;66.60;;;;;;5021435;28;20120;-58
2023/10/22 04:03:38;;;;;;;0.80;0.30;;;16.40;66.70;;;;;;5013778;28;20062;-58
2023/10/22 04:06:05;;;;;;;1.13;0.30;;;16.40;66.70;;;;;;5016452;28;20049;-58
2023/10/22 04:08:32;;;;;;;0.47;0.30;;;16.40;66.60;;;;;;5021674;28;20065;-58
2023/10/22 04:11:04;;;;;;;0.50;0.10;;;16.30;66.50;;;;;;5020461;28;20048;-58
2023/10/22 04:13:31;;;;;;;0.95;0.10;;;16.40;66.70;;;;;;5011742;28;20121;-58
2023/10/22 04:15:58;;;;;;;0.10;0.10;;;16.30;66.70;;;;;;5019998;28;20080;-58
2023/10/22 04:18:25;;;;;;;1.17;0.17;;;16.30;66.90;;;;;;5013043;28;20042;-58
2023/10/22 04:20:52;;;;;;;0.40;0.10;;;16.30;66.90;;;;;;5017174;28;20116;-58
2023/10/22 04:23:19;;;;;;;0.15;0.15;;;16.30;67.00;;;;;;5010406;28;20464;-57
2023/10/22 04:25:46;;;;;;;0.28;0.20;;;16.30;67.20;;;;;;5018530;28;20508;-58
2023/10/22 04:28:14;;;;;;;0.10;0.10;;;16.30;67.30;;;;;;5020483;28;20139;-58
2023/10/22 04:30:43;;;;;;;0.10;0.10;;;16.30;67.40;;;;;;5027015;28;20068;-58
2023/10/22 04:33:12;;;;;;;0.40;0.30;;;16.20;67.50;;;;;;5018049;28;20034;-58
2023/10/22 04:35:39;;;;;;;3.08;0.32;;;16.20;67.50;;;;;;5017990;28;20084;-58
2023/10/22 04:38:06;;;;;;;0.77;0.10;;;16.20;67.60;;;;;;5025475;28;20124;-58
2023/10/22 04:40:36;;;;;;;1.33;0.40;;;16.20;67.70;;;;;;5025864;28;20069;-57
2023/10/22 04:43:06;;;;;;;0.20;0.10;;;16.20;67.70;;;;;;5014509;28;20042;-56
2023/10/22 04:45:33;;;;;;;0.90;0.20;;;16.10;67.90;;;;;;5021444;28;20042;-58
2023/10/22 04:48:03;;;;;;;0.35;0.10;;;16.20;67.70;;;;;;5027572;28;20041;-58
2023/10/22 04:50:30;;;;;;;0.75;0.10;;;16.20;67.70;;;;;;5017555;28;20042;-58
2023/10/22 04:52:57;;;;;;;0.50;0.20;;;16.10;67.00;;;;;;5013922;28;20046;-59
2023/10/22 04:55:26;;;;;;;0.45;0.20;;;16.10;66.70;;;;;;5006975;28;20467;-58
2023/10/22 04:58:00;;;;;;;0.38;0.10;;;16.10;66.30;;;;;;5020507;28;20125;-59
2023/10/22 05:00:27;;;;;;;0.10;0.10;;;16.10;66.10;;;;;;5025345;28;20128;-56
2023/10/22 05:02:54;;;;;;;1.13;0.32;;;16.10;66.00;;;;;;5027533;28;20033;-58
2023/10/22 05:05:23;;;;;;;0.40;0.17;;;16.10;66.00;;;;;;5016669;28;20046;-58
2023/10/22 05:07:50;;;;;;;0.20;0.20;;;16.10;65.40;;;;;;5021348;28;20046;-58
2023/10/22 05:10:17;;;;;;;0.10;0.10;;;16.10;65.10;;;;;;5025690;28;20052;-57
2023/10/22 05:12:43;;;;;;;0.20;0.20;;;16.10;64.90;;;;;;5015628;28;20132;-57
2023/10/22 05:15:10;;;;;;;5.32;0.32;;;16.10;65.00;;;;;;5011913;28;20120;-57
2023/10/22 05:17:37;;;;;;;0.10;0.10;;;16.00;64.80;;;;;;5021165;28;20045;-57
2023/10/22 05:20:07;;;;;;;0.50;0.30;;;16.00;64.90;;;;;;5027359;28;20072;-57
2023/10/22 05:22:37;;;;;;;1.33;0.22;;;16.00;64.80;;;;;;5005330;28;20281;-58
2023/10/22 05:25:07;;;;;;;1.60;0.20;;;16.00;64.60;;;;;;5011338;28;20072;-58
2023/10/22 05:27:33;;;;;;;0.32;0.30;;;16.00;64.70;;;;;;5015765;28;20049;-57
2023/10/22 05:30:00;;;;;;;0.10;0.10;;;16.00;64.60;;;;;;5027572;28;20120;-58
2023/10/22 05:32:29;;;;;;;0.10;0.10;;;16.00;64.60;;;;;;5018967;28;20041;-58
2023/10/22 05:34:56;;;;;;;0.20;0.10;;;16.00;64.60;;;;;;5022331;28;20050;-57
2023/10/22 05:37:23;;;;;;;1.20;0.20;;;16.00;64.70;;;;;;5013818;28;20080;-58
2023/10/22 05:39:49;;;;;;;1.05;0.20;;;16.00;64.70;;;;;;5027518;28;20041;-58
2023/10/22 05:42:17;;;;;;;1.38;0.57;;;15.90;64.80;;;;;;5013814;28;20070;-58
2023/10/22 05:44:44;;;;;;;0.30;0.30;;;16.00;64.80;;;;;;4996439;28;20038;-58
2023/10/22 05:47:10;;;;;;;0.50;0.40;;;15.90;64.80;;;;;;5000305;28;20048;-58
2023/10/22 05:49:37;;;;;;;1.55;0.20;;;15.90;64.50;;;;;;5012033;28;20472;-58
2023/10/22 05:52:04;;;;;;;0.52;0.28;;;15.90;64.80;;;;;;5012273;28;20037;-58
2023/10/22 05:54:31;;;;;;;1.70;0.32;;;15.90;64.80;;;;;;5011523;28;20137;-57
2023/10/22 05:57:01;;;;;;;1.17;0.20;;;15.90;65.00;;;;;;5003041;28;20042;-57
2023/10/22 05:59:28;;;;;;;2.00;0.32;;;15.90;64.80;;;;;;5003198;28;20042;-57
2023/10/22 06:01:55;;;;;;;2.20;0.38;;;15.90;64.70;;;;;;5005060;28;20049;-58
2023/10/22 06:04:21;;;;;;;1.38;0.10;;;15.80;64.50;;;;;;5003339;28;20049;-58
2023/10/22 06:06:48;;;;;;;0.40;0.20;;;15.80;64.70;;;;;;5013524;28;20045;-58
2023/10/22 06:09:18;;;;;;;0.65;0.55;;;15.80;64.80;;;;;;5008140;28;20077;-57
2023/10/22 06:11:46;;;;;;;0.47;0.30;;;15.80;64.80;;;;;;5006280;28;20069;-59
2023/10/22 06:14:13;;;;;;;1.77;0.22;;;15.80;64.80;;;;;;4992097;28;20602;-58
2023/10/22 06:16:43;;;;;;;0.25;0.20;;;15.80;64.90;;;;;;4991065;28;20057;-59
2023/10/22 06:19:10;;;;;;;1.17;0.20;;;15.80;65.00;;;;;;5012553;28;20057;-58
2023/10/22 06:21:36;;;;;;;0.20;0.20;;;15.80;64.90;;;;;;5026536;28;20116;-58
2023/10/22 06:24:03;;;;;;;0.75;0.30;;;15.80;65.00;;;;;;5027873;28;20064;-58
2023/10/22 06:26:31;;;;;;;0.73;0.20;;;15.70;65.00;;;;;;5008182;28;20419;-58
2023/10/22 06:29:01;;;;;;;0.13;0.13;;;15.70;65.00;;;;;;5024562;28;20045;-58
2023/10/22 06:31:30;;;;;;;0.80;0.15;;;15.70;65.00;;;;;;5019657;28;20045;-58
2023/10/22 06:33:58;;;;;;;0.30;0.20;;;15.70;65.30;;;;;;5016398;28;20044;-57
2023/10/22 06:36:25;;;;;;;0.50;0.30;;;15.70;65.10;;;;;;5021634;28;20492;-58
2023/10/22 06:38:51;;;;;;;0.98;0.43;;;15.70;65.80;;;;;;5027823;28;20046;-58
2023/10/22 06:41:22;;;;;;;0.70;0.32;;;15.70;65.20;;;;;;5020735;28;20498;-58
2023/10/22 06:43:49;;;;;;;1.52;0.60;;;15.70;65.30;;;;;;5008586;28;20572;-58
2023/10/22 06:46:19;;;;;;;0.95;0.55;;;15.80;65.20;;;;;;5011905;28;20055;-58
2023/10/22 06:48:48;;;;;;;1.52;0.90;;;15.80;65.20;;;;;;5005316;28;20044;-58
2023/10/22 06:51:16;;;;;;;1.15;0.63;;;15.80;65.30;;;;;;5005859;28;20042;-58
2023/10/22 06:53:44;;;;;;;1.08;0.80;;;15.80;65.30;;;;;;5013215;28;20452;-58
2023/10/22 06:56:14;;;;;;;1.70;1.60;;;15.80;65.20;;;;;;5013201;28;20117;-58
2023/10/22 06:58:44;;;;;;;1.10;0.88;;;15.80;65.10;;;;;;5019822;28;20625;-58
2023/10/22 07:01:15;;;;;;;0.93;0.70;;;15.80;65.10;;;;;;5013716;28;20061;-58
2023/10/22 07:03:46;;;;;;;1.25;0.40;;;15.80;64.90;;;;;;5013019;28;20402;-58
2023/10/22 07:06:14;;;;;;;0.75;0.38;;;15.80;64.90;;;;;;5015271;28;20388;-58
2023/10/22 07:08:43;;;;;;;0.60;0.32;;;15.90;65.00;;;;;;5019820;28;20510;-58
2023/10/22 07:11:11;;;;;;;1.80;0.40;;;15.90;64.90;;;;;;5012234;28;21060;-58
2023/10/22 07:13:38;;;;;;;0.50;0.50;;;15.90;64.80;;;;;;5002768;28;20052;-58
2023/10/22 07:16:05;;;;;;;0.30;0.30;;;15.90;64.80;;;;;;5028046;28;20113;-58
2023/10/22 07:18:32;;;;;;;0.20;0.20;;;15.90;64.70;;;;;;5021162;28;20050;-58
2023/10/22 07:21:00;;;;;;;0.63;0.45;;;15.90;64.80;;;;;;5006966;28;20145;-58
2023/10/22 07:23:31;;;;;;;0.35;0.35;;;15.90;64.80;;;;;;5013093;28;20129;-57
2023/10/22 07:26:00;;;;;;;0.57;0.50;;;15.90;65.00;;;;;;4999502;28;20046;-56
2023/10/22 07:28:27;;;;;;;0.52;0.50;;;15.90;64.90;;;;;;4998436;28;20052;-58
2023/10/22 07:30:55;;;;;;;1.98;0.80;;;15.90;65.00;;;;;;4995383;28;20038;-57
2023/10/22 07:33:22;;;;;;;1.38;0.82;;;15.90;65.00;;;;;;4994578;28;20046;-58
2023/10/22 07:35:57;;;;;;;1.23;0.90;;;16.00;64.90;;;;;;5004025;28;20128;-58
2023/10/22 07:38:29;;;;;;;1.10;1.00;;;16.00;65.10;;;;;;5005392;28;20065;-58
2023/10/22 07:40:56;;;;;;;;;;;16.00;65.20;;;;;;5006209;28;20046;-58
2023/10/22 07:43:27;;;;;;;0.85;0.85;;;16.10;65.30;;;;;;5005454;28;20012;-58
2023/10/22 07:46:04;;;;;;;1.60;0.70;;;16.10;65.00;;;;;;5009187;28;20042;-59
2023/10/22 07:48:32;;;;;;;0.75;0.50;;;16.10;65.00;;;;;;5003344;28;20073;-59
2023/10/22 07:51:18;;;;;;;1.67;0.75;;;16.10;65.00;;;;;;4998105;28;20447;-58
2023/10/22 07:53:47;;;;;;;0.90;0.43;;;16.20;65.30;;;;;;5001131;28;20408;-58
2023/10/22 07:56:18;;;;;;;0.30;0.30;;;16.20;65.20;;;;;;5000446;28;20096;-59
2023/10/22 07:58:47;;;;;;;1.17;0.90;;;16.20;65.30;;;;;;5010076;28;20125;-59
2023/10/22 08:01:13;;;;;;;1.45;0.40;;;16.30;65.40;;;;;;5003882;28;20121;-58
2023/10/22 08:03:40;;;;;;;1.08;0.50;;;16.40;65.30;;;;;;5006740;28;20925;-58
2023/10/22 08:06:07;;;;;;;0.35;0.25;;;16.40;65.50;;;;;;5001353;28;20206;-59
2023/10/22 08:08:34;;;;;;;0.63;0.43;;;16.50;65.30;;;;;;5001282;28;20126;-57
2023/10/22 08:11:02;;;;;;;1.42;0.40;;;16.50;65.20;;;;;;5003912;28;20108;-58
2023/10/22 08:13:29;;;;;;;1.00;0.40;;;16.60;65.30;;;;;;5001958;28;20133;-58
2023/10/22 08:15:56;;;;;;;1.05;0.50;;;16.60;65.40;;;;;;5010229;28;20108;-58
2023/10/22 08:18:23;;;;;;;0.90;0.50;;;16.70;65.50;;;;;;5006830;28;20045;-58
2023/10/22 08:20:51;;;;;;;0.75;0.40;;;16.70;65.20;;;;;;5014856;28;20092;-58
2023/10/22 08:23:18;;;;;;;0.68;0.40;;;16.80;65.00;;;;;;5013568;28;20041;-58
2023/10/22 08:25:51;;;;;;;0.35;0.20;;;16.80;65.50;;;;;;5000105;28;20114;-58
2023/10/22 08:28:18;;;;;;;1.17;0.30;;;16.90;65.20;;;;;;4998536;28;20723;-59
2023/10/22 08:30:49;;;;;;;0.85;0.30;;;16.90;65.20;;;;;;5005425;28;20056;-58
2023/10/22 08:33:16;;;;;;;0.30;0.20;;;16.90;65.30;;;;;;5010959;28;20467;-58
2023/10/22 08:35:43;;;;;;;2.38;0.40;;;17.00;65.40;;;;;;5009278;28;20412;-58
2023/10/22 08:38:10;;;;;;;1.70;0.55;;;17.10;65.50;;;;;;5004696;28;20448;-59
2023/10/22 08:40:41;;;;;;;0.30;0.30;;;17.20;65.30;;;;;;5010219;28;20076;-58
2023/10/22 08:43:33;;;;;;;0.40;0.30;;;17.30;65.20;;;;;;5005039;28;20101;-58
2023/10/22 08:46:02;;;;;;;1.08;0.35;;;17.40;65.40;;;;;;5007697;28;20034;-58
2023/10/22 08:48:30;;;;;;;2.47;0.52;;;17.50;65.30;;;;;;5013926;28;20125;-57
2023/10/22 08:51:02;;;;;;;0.75;0.40;;;17.60;65.20;;;;;;5014152;28;20060;-58
2023/10/22 08:53:29;;;;;;;0.50;0.40;;;17.70;64.90;;;;;;5003760;28;20072;-58
2023/10/22 08:55:58;;;;;;;0.30;0.30;;;17.70;64.80;;;;;;5003635;28;20403;-58
2023/10/22 08:58:25;;;;;;;0.30;0.30;;;17.80;64.70;;;;;;5008510;28;20046;-58
2023/10/22 09:00:52;;;;;;;0.90;0.30;;;17.80;64.60;;;;;;5009597;28;20129;-57
2023/10/22 09:03:25;;;;;;;0.22;0.20;;;17.90;64.50;;;;;;5007731;28;20045;-59
2023/10/22 09:05:54;;;;;;;2.08;0.20;;;17.90;64.30;;;;;;5008405;28;20121;-58
2023/10/22 09:08:39;;;;;;;1.17;0.28;;;17.90;64.20;;;;;;4997183;28;20452;-57
2023/10/22 09:11:15;;;;;;;1.27;0.30;;;17.90;64.20;;;;;;5014898;28;20112;-58
2023/10/22 09:13:43;;;;;;;2.05;0.40;;;17.90;64.30;;;;;;5015870;28;20044;-58
2023/10/22 09:16:10;;;;;;;0.43;0.40;;;17.90;64.30;;;;;;5010215;28;20062;-58
2023/10/22 09:18:44;;;;;;;1.70;1.27;;;17.90;64.30;;;;;;5004364;28;20047;-58
2023/10/22 09:21:11;;;;;;;1.52;0.40;;;17.90;64.40;;;;;;5014471;28;20044;-59
2023/10/22 09:23:38;;;;;;;0.68;0.40;;;17.90;64.40;;;;;;5008872;28;20541;-58
2023/10/22 09:26:08;;;;;;;0.43;0.30;;;17.90;64.60;;;;;;5006108;28;20128;-58
2023/10/22 09:28:40;;;;;;;1.20;0.35;;;17.90;64.80;;;;;;5004151;28;20628;-58
2023/10/22 09:31:12;;;;;;;0.38;0.30;;;17.90;64.90;;;;;;5015036;28;20042;-58
2023/10/22 09:33:41;;;;;;;1.13;0.20;;;18.00;64.90;;;;;;5008401;28;20065;-59
2023/10/22 09:36:10;;;;;;;0.85;0.40;;;18.00;64.80;;;;;;5007859;28;20042;-59
2023/10/22 09:38:43;;;;;;;0.30;0.30;;;18.00;64.60;;;;;;5013758;28;20057;-59
2023/10/22 09:41:23;;;;;;;0.30;0.30;;;18.10;64.60;;;;;;5015217;28;20050;-58
2023/10/22 09:43:59;;;;;;;0.40;0.25;;;18.10;64.80;;;;;;5007176;28;20056;-59
2023/10/22 09:46:30;;;;;;;0.38;0.38;;;18.10;64.70;;;;;;5011289;28;20052;-58
2023/10/22 09:48:59;;;;;;;0.30;0.30;;;18.10;64.60;;;;;;5014905;28;20615;-58
2023/10/22 09:51:34;;;;;;;1.80;0.40;;;18.10;64.60;;;;;;5015992;28;20108;-58
2023/10/22 09:54:06;;;;;;;0.40;0.40;;;18.10;65.00;;;;;;5007199;28;20045;-58
2023/10/22 09:56:53;;;;;;;0.43;0.40;;;18.20;64.80;;;;;;5006653;28;20070;-58
2023/10/22 09:59:23;;;;;;;0.98;0.40;;;18.20;64.60;;;;;;5005694;28;20038;-58
2023/10/22 10:01:51;;;;;;;0.60;0.50;;;18.20;64.20;;;;;;5006731;28;20045;-58
2023/10/22 10:04:20;;;;;;;0.60;0.50;;;18.30;64.00;;;;;;5005708;28;20046;-59
2023/10/22 10:06:50;;;;;;;0.50;0.38;;;18.30;64.10;;;;;;5011889;28;20076;-59
2023/10/22 10:09:17;;;;;;;1.30;0.70;;;18.20;64.40;;;;;;5003472;28;20128;-58
2023/10/22 10:11:45;;;;;;;1.75;0.60;;;18.30;64.20;;;;;;5005395;28;20048;-58
2023/10/22 10:14:13;;;;;;;0.88;0.88;;;18.30;64.30;;;;;;5011201;28;20524;-59
2023/10/22 10:16:59;;;;;;;0.95;0.45;;;18.30;64.00;;;;;;5012337;28;20427;-57
2023/10/22 10:19:26;;;;;;;0.88;0.60;;;18.40;63.80;;;;;;5005129;28;20446;-59
2023/10/22 10:21:54;;;;;;;3.30;0.65;;;18.40;63.90;;;;;;5014177;28;20096;-59
2023/10/22 10:24:25;;;;;;;0.80;0.50;;;18.50;64.10;;;;;;5012955;28;20053;-57
2023/10/22 10:26:55;;;;;;;0.63;0.45;;;18.50;64.20;;;;;;5017464;28;20598;-58
2023/10/22 10:29:30;;;;;;;0.63;0.35;;;18.60;63.60;;;;;;5005244;28;20061;-58
2023/10/22 10:32:19;;;;;;;1.05;0.55;;;18.70;63.20;;;;;;5004623;28;20050;-58
2023/10/22 10:34:48;;;;;;;2.35;0.55;;;18.80;62.80;;;;;;5013083;28;20517;-58
2023/10/22 10:37:16;;;;;;;0.40;0.30;;;18.80;63.00;;;;;;5013677;28;20073;-59
2023/10/22 10:39:47;;;;;;;1.30;0.35;;;18.90;62.70;;;;;;5009308;28;20058;-59
2023/10/22 10:42:36;;;;;;;0.60;0.40;;;19.00;62.60;;;;;;5008677;28;20046;-59
2023/10/22 10:45:05;;;;;;;0.20;0.20;;;19.10;62.00;;;;;;5015267;28;20069;-57
2023/10/22 10:47:36;;;;;;;2.10;0.50;;;19.10;62.20;;;;;;5004714;28;20046;-58
2023/10/22 10:50:17;;;;;;;0.40;0.40;;;19.10;62.10;;;;;;5010636;28;20067;-58
2023/10/22 10:52:44;;;;;;;2.03;0.30;;;19.10;61.90;;;;;;5008246;28;20049;-57
2023/10/22 10:55:20;;;;;;;0.73;0.20;;;19.20;62.00;;;;;;5004885;28;20057;-58
2023/10/22 10:57:51;;;;;;;0.70;0.30;;;19.20;61.60;;;;;;5005968;28;20457;-58
2023/10/22 11:00:24;;;;;;;1.33;0.40;;;19.20;61.80;;;;;;5001493;28;20496;-58
2023/10/22 11:02:55;;;;;;;1.10;0.40;;;19.20;61.90;;;;;;5005966;28;20037;-58
2023/10/22 11:05:40;;;;;;;1.45;0.30;;;19.30;61.60;;;;;;5005554;28;20397;-56
2023/10/22 11:08:18;;;;;;;0.63;0.40;;;19.30;61.00;;;;;;5005262;28;20053;-58
2023/10/22 11:10:46;;;;;;;0.98;0.30;;;19.40;61.30;;;;;;5007786;28;20068;-58
2023/10/22 11:13:13;;;;;;;0.57;0.57;;;19.40;61.40;;;;;;5008095;28;20085;-58
2023/10/22 11:15:40;;;;;;;0.40;0.30;;;19.40;61.20;;;;;;5007107;28;20124;-57
2023/10/22 11:18:10;;;;;;;1.40;0.47;;;19.40;61.50;;;;;;5010038;28;20237;-57
2023/10/22 11:20:40;;;;;;;1.65;0.40;;;19.50;61.10;;;;;;5012778;28;20041;-57
2023/10/22 11:23:18;;;;;;;2.67;0.47;;;19.50;61.10;;;;;;5008188;28;20658;-57
2023/10/22 11:25:46;;;;;;;0.95;0.47;;;19.60;60.60;;;;;;5008616;28;20049;-58
2023/10/22 11:28:13;;;;;;;1.02;0.63;;;19.60;60.80;;;;;;5010356;28;20042;-58
2023/10/22 11:30:42;;;;;;;0.95;0.40;;;19.50;60.40;;;;;;4994970;28;20064;-59
2023/10/22 11:33:13;;;;;;;4.78;1.08;;;19.50;60.60;;;;;;4995514;28;20385;-58
2023/10/22 11:35:40;;;;;;;3.38;1.00;;;19.50;60.80;;;;;;5020683;28;20112;-58
2023/10/22 11:38:07;;;;;;;0.65;0.22;;;19.50;60.80;;;;;;5016816;28;20049;-59
2023/10/22 11:40:36;;;;;;;0.50;0.30;;;19.50;61.10;;;;;;5010842;28;20096;-58
2023/10/22 11:43:14;;;;;;;0.40;0.40;;;19.60;61.30;;;;;;5015394;28;20072;-58
2023/10/22 11:45:55;;;;;;;0.60;0.30;;;19.70;61.00;;;;;;5020322;28;20046;-58
2023/10/22 11:48:24;;;;;;;0.32;0.32;;;19.80;60.60;;;;;;5006903;28;20073;-58
2023/10/22 11:50:55;;;;;;;0.45;0.20;;;19.90;60.40;;;;;;5012648;28;20053;-57
2023/10/22 11:53:22;;;;;;;0.30;0.30;;;20.00;59.70;;;;;;5020427;28;20049;-58
2023/10/22 11:55:49;;;;;;;1.48;0.20;;;19.90;59.60;;;;;;5013016;28;20133;-58
2023/10/22 11:58:20;;;;;;;0.47;0.20;;;20.00;59.40;;;;;;5002950;28;20081;-56
2023/10/22 12:00:48;;;;;;;0.68;0.25;;;20.00;59.20;;;;;;5006187;28;20046;-58
2023/10/22 12:03:15;;;;;;;0.20;0.20;;;20.00;59.30;;;;;;5006999;28;20068;-57
2023/10/22 12:05:42;;;;;;;0.47;0.20;;;20.00;59.20;;;;;;5006609;28;20124;-57
2023/10/22 12:08:09;;;;;;;0.15;0.10;;;20.00;59.00;;;;;;5002472;28;20455;-58
2023/10/22 12:10:36;;;;;;;0.40;0.20;;;20.00;58.70;;;;;;5003544;28;20104;-58
2023/10/22 12:13:05;;;;;;;0.20;0.20;;;19.90;58.70;;;;;;5006721;28;20472;-58
2023/10/22 12:15:33;;;;;;;0.65;0.45;;;19.90;58.70;;;;;;5005943;28;20508;-58
2023/10/22 12:17:59;;;;;;;0.80;0.28;;;19.90;58.80;;;;;;5000950;28;20041;-58
2023/10/22 12:20:26;;;;;;;0.45;0.20;;;19.90;58.80;;;;;;5001610;28;20093;-57
2023/10/22 12:22:56;;;;;;;1.35;0.20;;;19.80;58.80;;;;;;5005556;28;20096;-58
2023/10/22 12:25:23;;;;;;;0.30;0.22;;;19.90;58.80;;;;;;5008778;28;20053;-57
2023/10/22 12:27:49;;;;;;;0.90;0.25;;;19.90;59.00;;;;;;5015486;28;20484;-58
2023/10/22 12:30:17;;;;;;;1.00;0.70;;;19.90;58.90;;;;;;5015158;28;20045;-59
2023/10/22 12:32:44;;;;;;;0.30;0.30;;;19.90;58.80;;;;;;5009142;28;20053;-58
2023/10/22 12:35:12;;;;;;;0.28;0.28;;;19.90;58.80;;;;;;5004014;28;20038;-57
2023/10/22 12:37:39;;;;;;;2.33;1.45;;;19.80;58.90;;;;;;5011030;28;20119;-58
2023/10/22 12:40:07;;;;;;;1.70;0.20;;;19.80;59.40;;;;;;5018739;28;20084;-58
2023/10/22 12:42:36;;;;;;;0.43;0.30;;;19.70;60.50;;;;;;5021424;28;20117;-58
2023/10/22 12:45:03;;;;;;;0.73;0.40;;;19.60;61.30;;;;;;5013907;28;20112;-58
2023/10/22 12:47:30;;;;;;;0.95;0.52;;;19.50;62.40;;;;;;5021848;28;20037;-58
2023/10/22 12:49:57;;;;;;;0.40;0.40;;;19.40;63.00;;;;;;5019842;28;20079;-58
2023/10/22 12:52:23;;;;;;;0.43;0.30;;;19.30;63.30;;;;;;5012214;28;20054;-58
2023/10/22 12:54:50;;;;;;;1.30;0.68;;;19.20;64.10;;;;;;5020383;28;20592;-58